Wetterdaten: Woche 25.07.16 - 31.07.16 (KW30)
Datum Zeit Temperatur Luftfeuchte Luftdruck Niederschlag Windrichtung Sonnenschein Solar Wind
25.07.2016 00:00 18,2 C 94 % 1016,6 hPa 0,0 l/m N 0,00 h 0 W/m 0,5 km/h (0 Bft)
25.07.2016 01:00 18,1 C 95 % 1016,5 hPa 0,0 l/m N 0,00 h 0 W/m 0,0 km/h (0 Bft)
25.07.2016 02:00 17,7 C 95 % 1016,3 hPa 0,0 l/m N 0,00 h 0 W/m 0,0 km/h (0 Bft)
25.07.2016 03:00 17,8 C 96 % 1016,2 hPa 0,0 l/m N 0,00 h 0 W/m 0,0 km/h (0 Bft)
25.07.2016 04:00 17,4 C 97 % 1016,2 hPa 0,0 l/m N 0,00 h 0 W/m 0,0 km/h (0 Bft)
25.07.2016 05:00 17,0 C 97 % 1016,1 hPa 0,0 l/m N-NW 0,00 h 5 W/m 0,8 km/h (0 Bft)
25.07.2016 06:00 17,0 C 98 % 1015,9 hPa 0,0 l/m N-NW 0,00 h 20 W/m 0,7 km/h (0 Bft)
25.07.2016 07:00 17,7 C 97 % 1016,4 hPa 0,0 l/m N 0,00 h 40 W/m 0,4 km/h (0 Bft)
25.07.2016 08:00 18,6 C 96 % 1016,6 hPa 0,0 l/m N-NW 0,08 h 155 W/m 2,0 km/h (1 Bft)
25.07.2016 09:00 20,9 C 86 % 1016,5 hPa 0,0 l/m N-NW 0,42 h 226 W/m 2,8 km/h (1 Bft)
25.07.2016 10:00 21,7 C 81 % 1016,2 hPa 0,0 l/m N-NW 0,58 h 444 W/m 3,2 km/h (1 Bft)
25.07.2016 11:00 23,9 C 70 % 1015,8 hPa 0,0 l/m N-NW 1,00 h 791 W/m 7,9 km/h (2 Bft)
25.07.2016 12:00 25,2 C 65 % 1015,4 hPa 0,0 l/m SW 0,83 h 766 W/m 10,1 km/h (2 Bft)
25.07.2016 13:00 24,9 C 67 % 1015,2 hPa 0,0 l/m SW 0,33 h 476 W/m 11,7 km/h (2 Bft)
25.07.2016 14:00 23,1 C 76 % 1015,1 hPa 0,0 l/m W-SW 0,00 h 192 W/m 12,9 km/h (3 Bft)
25.07.2016 15:00 24,9 C 71 % 1015,0 hPa 0,0 l/m SW 0,58 h 692 W/m 14,0 km/h (3 Bft)
25.07.2016 16:00 23,0 C 80 % 1015,1 hPa 2,2 l/m NO 0,00 h 98 W/m 10,9 km/h (2 Bft)
25.07.2016 17:00 21,4 C 91 % 1015,1 hPa 0,0 l/m S 0,00 h 91 W/m 4,4 km/h (1 Bft)
25.07.2016 18:00 21,2 C 89 % 1015,5 hPa 0,0 l/m SO 0,00 h 65 W/m 6,2 km/h (2 Bft)
25.07.2016 19:00 20,8 C 89 % 1015,8 hPa 0,0 l/m SO 0,00 h 29 W/m 2,1 km/h (1 Bft)
25.07.2016 20:00 19,9 C 92 % 1016,5 hPa 2,4 l/m N 0,00 h 9 W/m 6,2 km/h (2 Bft)
25.07.2016 21:00 18,6 C 96 % 1016,9 hPa 1,6 l/m N 0,00 h 0 W/m 2,3 km/h (1 Bft)
25.07.2016 22:00 18,3 C 97 % 1017,4 hPa 0,4 l/m N-NW 0,00 h 0 W/m 1,6 km/h (1 Bft)
25.07.2016 23:00 18,0 C 98 % 1017,3 hPa 0,4 l/m N 0,00 h 0 W/m 0,4 km/h (0 Bft)
26.07.2016 00:00 17,3 C 98 % 1017,0 hPa 0,0 l/m N 0,00 h 0 W/m 0,3 km/h (0 Bft)
26.07.2016 01:00 16,6 C 98 % 1016,8 hPa 0,0 l/m N-NW 0,00 h 0 W/m 1,6 km/h (1 Bft)
26.07.2016 02:00 16,6 C 98 % 1016,9 hPa 0,0 l/m N 0,00 h 0 W/m 0,0 km/h (0 Bft)
26.07.2016 03:00 16,6 C 99 % 1017,0 hPa 0,0 l/m N 0,00 h 0 W/m 0,0 km/h (0 Bft)
26.07.2016 04:00 16,7 C 99 % 1016,5 hPa 0,0 l/m N 0,00 h 0 W/m 0,4 km/h (0 Bft)
26.07.2016 05:00 16,8 C 99 % 1016,7 hPa 0,0 l/m N 0,00 h 0 W/m 0,0 km/h (0 Bft)
26.07.2016 06:00 16,8 C 99 % 1016,6 hPa 0,0 l/m N 0,00 h 19 W/m 0,0 km/h (0 Bft)
26.07.2016 07:00 17,2 C 100 % 1016,9 hPa 0,0 l/m N 0,00 h 42 W/m 0,3 km/h (0 Bft)
26.07.2016 08:00 17,9 C 99 % 1017,0 hPa 0,0 l/m N-NW 0,00 h 89 W/m 0,9 km/h (0 Bft)
26.07.2016 09:00 19,2 C 97 % 1017,0 hPa 0,0 l/m N-NW 0,33 h 238 W/m 2,0 km/h (1 Bft)
26.07.2016 10:00 21,5 C 86 % 1017,0 hPa 0,0 l/m N-NW 0,67 h 499 W/m 3,5 km/h (1 Bft)
26.07.2016 11:00 23,3 C 77 % 1016,8 hPa 0,0 l/m N-NW 0,92 h 698 W/m 4,9 km/h (1 Bft)
26.07.2016 12:00 24,5 C 72 % 1016,5 hPa 0,0 l/m SO 0,83 h 707 W/m 7,2 km/h (2 Bft)
26.07.2016 13:00 23,7 C 73 % 1016,2 hPa 0,0 l/m N 0,00 h 220 W/m 13,1 km/h (3 Bft)
26.07.2016 14:00 22,8 C 74 % 1016,0 hPa 0,0 l/m N 0,00 h 136 W/m 12,0 km/h (2 Bft)
26.07.2016 15:00 22,7 C 75 % 1015,6 hPa 0,0 l/m N-NW 0,00 h 153 W/m 5,1 km/h (1 Bft)
26.07.2016 16:00 24,7 C 66 % 1015,3 hPa 0,0 l/m N-NO 0,75 h 664 W/m 6,4 km/h (2 Bft)
26.07.2016 17:00 26,0 C 59 % 1015,1 hPa 0,0 l/m N-NO 0,83 h 473 W/m 5,1 km/h (1 Bft)
26.07.2016 18:00 25,5 C 58 % 1014,9 hPa 0,0 l/m O 0,42 h 166 W/m 7,0 km/h (2 Bft)
26.07.2016 19:00 21,2 C 79 % 1015,8 hPa 14,8 l/m N-NW 0,00 h 13 W/m 22,1 km/h (4 Bft)
26.07.2016 20:00 16,4 C 94 % 1016,5 hPa 9,0 l/m SW 0,00 h 0 W/m 11,9 km/h (2 Bft)
26.07.2016 21:00 17,0 C 97 % 1016,5 hPa 0,8 l/m S-SW 0,00 h 0 W/m 3,6 km/h (1 Bft)
26.07.2016 22:00 16,9 C 98 % 1016,1 hPa 0,0 l/m N 0,00 h 0 W/m 0,4 km/h (0 Bft)
26.07.2016 23:00 16,7 C 99 % 1016,2 hPa 0,0 l/m NW 0,00 h 0 W/m 4,7 km/h (1 Bft)
27.07.2016 00:00 16,8 C 99 % 1016,4 hPa 0,0 l/m N-NW 0,00 h 0 W/m 2,9 km/h (1 Bft)
27.07.2016 01:00 16,5 C 99 % 1015,9 hPa 0,0 l/m NW 0,00 h 0 W/m 0,0 km/h (0 Bft)
27.07.2016 02:00 16,1 C 99 % 1015,7 hPa 0,0 l/m NW 0,00 h 0 W/m 2,8 km/h (1 Bft)
27.07.2016 03:00 16,1 C 99 % 1015,5 hPa 0,0 l/m N 0,00 h 0 W/m 0,4 km/h (0 Bft)
27.07.2016 04:00 16,1 C 100 % 1015,2 hPa 0,0 l/m N 0,00 h 0 W/m 0,1 km/h (0 Bft)
27.07.2016 05:00 15,7 C 100 % 1015,0 hPa 0,0 l/m N 0,00 h 5 W/m 0,0 km/h (0 Bft)
27.07.2016 06:00 15,7 C 100 % 1015,1 hPa 0,2 l/m N 0,00 h 19 W/m 0,0 km/h (0 Bft)
27.07.2016 07:00 16,3 C 100 % 1015,4 hPa 0,0 l/m N 0,17 h 91 W/m 0,7 km/h (0 Bft)
27.07.2016 08:00 17,3 C 100 % 1015,5 hPa 0,0 l/m NW 0,25 h 166 W/m 2,5 km/h (1 Bft)
27.07.2016 09:00 18,4 C 98 % 1015,6 hPa 0,0 l/m NW 0,00 h 170 W/m 3,3 km/h (1 Bft)
27.07.2016 10:00 19,3 C 94 % 1015,7 hPa 0,0 l/m NW 0,08 h 203 W/m 1,7 km/h (1 Bft)
27.07.2016 11:00 20,8 C 88 % 1015,5 hPa 0,0 l/m N-NO 0,17 h 318 W/m 10,6 km/h (2 Bft)
27.07.2016 12:00 20,4 C 87 % 1015,3 hPa 0,2 l/m NO 0,00 h 151 W/m 4,0 km/h (1 Bft)
27.07.2016 13:00 19,8 C 93 % 1015,1 hPa 1,8 l/m W-NW 0,00 h 107 W/m 3,5 km/h (1 Bft)
27.07.2016 14:00 18,8 C 97 % 1015,0 hPa 0,4 l/m W-NW 0,17 h 251 W/m 5,2 km/h (1 Bft)
27.07.2016 15:00 21,4 C 89 % 1014,2 hPa 0,0 l/m NW 0,75 h 713 W/m 5,7 km/h (1 Bft)
27.07.2016 16:00 23,3 C 76 % 1013,9 hPa 0,0 l/m W-NW 0,92 h 721 W/m 11,5 km/h (2 Bft)
27.07.2016 17:00 23,2 C 74 % 1013,8 hPa 0,0 l/m W-SW 0,67 h 457 W/m 9,7 km/h (2 Bft)
27.07.2016 18:00 23,1 C 73 % 1013,8 hPa 0,0 l/m SW 0,25 h 166 W/m 9,9 km/h (2 Bft)
27.07.2016 19:00 20,9 C 85 % 1013,8 hPa 0,0 l/m SW 0,17 h 58 W/m 7,4 km/h (2 Bft)
27.07.2016 20:00 18,6 C 83 % 1014,4 hPa 0,0 l/m W-SW 0,17 h 29 W/m 8,2 km/h (2 Bft)
27.07.2016 21:00 17,8 C 86 % 1015,5 hPa 5,2 l/m O 0,00 h 0 W/m 9,1 km/h (2 Bft)
27.07.2016 22:00 16,8 C 95 % 1016,1 hPa 0,0 l/m N 0,00 h 0 W/m 1,1 km/h (0 Bft)
27.07.2016 23:00 15,9 C 97 % 1016,2 hPa 0,0 l/m N 0,00 h 0 W/m 0,0 km/h (0 Bft)
28.07.2016 00:00 15,9 C 98 % 1016,2 hPa 0,0 l/m O-SO 0,00 h 0 W/m 0,9 km/h (0 Bft)
28.07.2016 01:00 16,2 C 99 % 1016,3 hPa 0,0 l/m S-SW 0,00 h 0 W/m 9,5 km/h (2 Bft)
28.07.2016 02:00 16,0 C 98 % 1016,2 hPa 0,0 l/m S-SW 0,00 h 0 W/m 6,2 km/h (2 Bft)
28.07.2016 03:00 15,6 C 98 % 1015,9 hPa 0,0 l/m N 0,00 h 0 W/m 0,8 km/h (0 Bft)
28.07.2016 04:00 14,9 C 98 % 1015,8 hPa 0,0 l/m N 0,00 h 0 W/m 0,4 km/h (0 Bft)
28.07.2016 05:00 14,3 C 99 % 1015,8 hPa 0,0 l/m N 0,00 h 0 W/m 0,0 km/h (0 Bft)
28.07.2016 06:00 14,1 C 99 % 1015,7 hPa 0,2 l/m N 0,00 h 21 W/m 0,0 km/h (0 Bft)
28.07.2016 07:00 14,6 C 100 % 1015,6 hPa 0,0 l/m N 0,00 h 73 W/m 0,0 km/h (0 Bft)
28.07.2016 08:00 15,6 C 100 % 1015,7 hPa 0,0 l/m S-SW 0,42 h 229 W/m 0,9 km/h (0 Bft)
28.07.2016 09:00 18,1 C 96 % 1015,6 hPa 0,0 l/m S-SW 0,75 h 381 W/m 6,7 km/h (2 Bft)
28.07.2016 10:00 19,2 C 89 % 1015,7 hPa 0,0 l/m S-SW 0,33 h 331 W/m 8,0 km/h (2 Bft)
28.07.2016 11:00 20,4 C 84 % 1015,7 hPa 0,0 l/m S-SW 0,25 h 405 W/m 8,2 km/h (2 Bft)
28.07.2016 12:00 21,9 C 77 % 1015,3 hPa 0,0 l/m S-SW 0,67 h 493 W/m 9,8 km/h (2 Bft)
28.07.2016 13:00 23,7 C 69 % 1014,8 hPa 0,0 l/m S-SW 1,00 h 894 W/m 15,0 km/h (3 Bft)
28.07.2016 14:00 23,8 C 65 % 1014,4 hPa 0,0 l/m S-SW 0,83 h 699 W/m 15,0 km/h (3 Bft)
28.07.2016 15:00 21,7 C 71 % 1014,2 hPa 1,8 l/m NW 0,00 h 117 W/m 14,1 km/h (3 Bft)
28.07.2016 16:00 18,4 C 92 % 1014,3 hPa 1,0 l/m N 0,00 h 146 W/m 4,5 km/h (1 Bft)
28.07.2016 17:00 20,7 C 87 % 1013,9 hPa 0,0 l/m NO 0,50 h 338 W/m 2,9 km/h (1 Bft)
28.07.2016 18:00 22,0 C 79 % 1013,6 hPa 0,0 l/m NO 0,83 h 340 W/m 1,2 km/h (1 Bft)
28.07.2016 19:00 21,9 C 80 % 1013,5 hPa 0,0 l/m NO 0,58 h 163 W/m 2,7 km/h (1 Bft)
28.07.2016 20:00 19,7 C 91 % 1013,5 hPa 0,0 l/m N 0,08 h 24 W/m 0,0 km/h (0 Bft)
28.07.2016 21:00 17,6 C 94 % 1013,6 hPa 0,0 l/m N 0,00 h 0 W/m 0,1 km/h (0 Bft)
28.07.2016 22:00 17,7 C 92 % 1013,8 hPa 0,0 l/m W 0,00 h 0 W/m 10,1 km/h (2 Bft)
28.07.2016 23:00 17,9 C 86 % 1014,0 hPa 0,0 l/m W-NW 0,00 h 0 W/m 9,9 km/h (2 Bft)
29.07.2016 00:00 17,7 C 85 % 1014,2 hPa 0,0 l/m W-NW 0,00 h 0 W/m 4,8 km/h (1 Bft)
29.07.2016 01:00 18,0 C 83 % 1014,2 hPa 0,0 l/m W-NW 0,00 h 0 W/m 5,3 km/h (1 Bft)
29.07.2016 02:00 16,6 C 89 % 1014,3 hPa 0,0 l/m N 0,00 h 0 W/m 0,0 km/h (0 Bft)
29.07.2016 03:00 15,1 C 95 % 1014,5 hPa 0,0 l/m W-NW 0,00 h 0 W/m 1,3 km/h (1 Bft)
29.07.2016 04:00 14,8 C 95 % 1014,5 hPa 0,0 l/m N 0,00 h 0 W/m 0,1 km/h (0 Bft)
29.07.2016 05:00 14,4 C 96 % 1014,4 hPa 0,0 l/m N 0,00 h 7 W/m 0,0 km/h (0 Bft)
29.07.2016 06:00 14,7 C 97 % 1014,4 hPa 0,0 l/m N 0,00 h 17 W/m 0,0 km/h (0 Bft)
29.07.2016 07:00 15,6 C 96 % 1014,7 hPa 0,0 l/m N 0,00 h 24 W/m 0,0 km/h (0 Bft)
29.07.2016 08:00 16,2 C 95 % 1014,7 hPa 0,0 l/m N 0,00 h 59 W/m 0,7 km/h (0 Bft)
29.07.2016 09:00 17,8 C 91 % 1014,7 hPa 0,0 l/m W-NW 0,00 h 157 W/m 4,4 km/h (1 Bft)
29.07.2016 10:00 19,9 C 84 % 1014,3 hPa 0,0 l/m SW 0,50 h 448 W/m 13,2 km/h (3 Bft)
29.07.2016 11:00 21,7 C 74 % 1014,0 hPa 0,0 l/m W-SW 0,50 h 582 W/m 16,2 km/h (3 Bft)
29.07.2016 12:00 22,6 C 68 % 1013,5 hPa 0,0 l/m W-SW 0,50 h 633 W/m 20,4 km/h (4 Bft)
29.07.2016 13:00 24,2 C 63 % 1013,2 hPa 0,0 l/m W-SW 1,00 h 1016 W/m 19,8 km/h (4 Bft)
29.07.2016 14:00 24,8 C 59 % 1012,8 hPa 0,0 l/m SW 0,67 h 701 W/m 20,9 km/h (4 Bft)
29.07.2016 15:00 25,5 C 58 % 1012,5 hPa 0,0 l/m W-SW 1,00 h 856 W/m 16,5 km/h (3 Bft)
29.07.2016 16:00 25,7 C 56 % 1012,2 hPa 0,0 l/m W-SW 1,00 h 671 W/m 17,2 km/h (3 Bft)
29.07.2016 17:00 25,2 C 57 % 1012,0 hPa 0,0 l/m W-SW 0,75 h 485 W/m 18,0 km/h (3 Bft)
29.07.2016 18:00 24,8 C 58 % 1011,6 hPa 0,0 l/m W-SW 0,83 h 368 W/m 14,8 km/h (3 Bft)
29.07.2016 19:00 23,8 C 62 % 1011,5 hPa 0,0 l/m W-SW 0,75 h 189 W/m 13,6 km/h (3 Bft)
29.07.2016 20:00 21,2 C 76 % 1011,8 hPa 0,0 l/m N 0,00 h 15 W/m 1,2 km/h (1 Bft)
29.07.2016 21:00 18,9 C 86 % 1012,2 hPa 0,0 l/m N 0,00 h 0 W/m 0,4 km/h (0 Bft)
29.07.2016 22:00 18,0 C 89 % 1012,5 hPa 0,0 l/m N 0,00 h 0 W/m 0,3 km/h (0 Bft)
29.07.2016 23:00 17,4 C 92 % 1012,7 hPa 0,0 l/m N 0,00 h 0 W/m 0,0 km/h (0 Bft)
30.07.2016 00:00 16,7 C 94 % 1012,7 hPa 0,0 l/m N 0,00 h 0 W/m 0,0 km/h (0 Bft)
30.07.2016 01:00 16,6 C 95 % 1012,8 hPa 0,0 l/m N 0,00 h 0 W/m 0,0 km/h (0 Bft)
30.07.2016 02:00 16,1 C 96 % 1012,8 hPa 0,0 l/m N 0,00 h 0 W/m 0,0 km/h (0 Bft)
30.07.2016 03:00 15,3 C 96 % 1012,8 hPa 0,0 l/m N 0,00 h 0 W/m 0,0 km/h (0 Bft)
30.07.2016 04:00 15,0 C 97 % 1012,7 hPa 0,0 l/m N 0,00 h 0 W/m 0,0 km/h (0 Bft)
30.07.2016 05:00 14,7 C 98 % 1012,6 hPa 0,0 l/m N 0,00 h 5 W/m 0,0 km/h (0 Bft)
30.07.2016 06:00 14,6 C 98 % 1012,6 hPa 0,0 l/m N 0,00 h 23 W/m 0,3 km/h (0 Bft)
30.07.2016 07:00 16,2 C 98 % 1012,6 hPa 0,0 l/m N 0,42 h 131 W/m 0,0 km/h (0 Bft)
30.07.2016 08:00 19,6 C 90 % 1012,5 hPa 0,0 l/m W-SW 0,83 h 298 W/m 4,5 km/h (1 Bft)
30.07.2016 09:00 22,4 C 77 % 1012,1 hPa 0,0 l/m S 0,92 h 444 W/m 8,3 km/h (2 Bft)
30.07.2016 10:00 23,5 C 72 % 1011,9 hPa 0,0 l/m S-SW 0,83 h 586 W/m 10,2 km/h (2 Bft)
30.07.2016 11:00 25,2 C 67 % 1011,6 hPa 0,0 l/m SW 1,00 h 760 W/m 12,6 km/h (3 Bft)
30.07.2016 12:00 26,2 C 63 % 1011,3 hPa 0,0 l/m W-SW 0,75 h 732 W/m 15,4 km/h (3 Bft)
30.07.2016 13:00 27,0 C 57 % 1010,9 hPa 0,0 l/m W-SW 0,83 h 781 W/m 19,6 km/h (3 Bft)
30.07.2016 14:00 28,1 C 51 % 1010,5 hPa 0,0 l/m W-SW 1,00 h 886 W/m 22,5 km/h (4 Bft)
30.07.2016 15:00 28,4 C 50 % 1010,4 hPa 0,0 l/m W 1,00 h 819 W/m 24,4 km/h (4 Bft)
30.07.2016 16:00 28,2 C 50 % 1010,2 hPa 0,0 l/m W-SW 0,50 h 441 W/m 17,6 km/h (3 Bft)
30.07.2016 17:00 28,0 C 49 % 1009,9 hPa 0,0 l/m W 0,67 h 382 W/m 22,9 km/h (4 Bft)
30.07.2016 18:00 26,6 C 55 % 1009,7 hPa 0,0 l/m W-SW 0,17 h 186 W/m 20,4 km/h (4 Bft)
30.07.2016 19:00 25,8 C 56 % 1009,6 hPa 0,0 l/m W-SW 0,67 h 182 W/m 23,1 km/h (4 Bft)
30.07.2016 20:00 24,1 C 61 % 1009,8 hPa 0,0 l/m W-SW 0,08 h 19 W/m 18,0 km/h (3 Bft)
30.07.2016 21:00 22,8 C 66 % 1010,0 hPa 0,0 l/m W-SW 0,00 h 5 W/m 14,0 km/h (3 Bft)
30.07.2016 22:00 21,7 C 70 % 1010,1 hPa 0,0 l/m W-SW 0,00 h 0 W/m 8,3 km/h (2 Bft)
30.07.2016 23:00 20,8 C 77 % 1009,9 hPa 0,0 l/m W-SW 0,00 h 0 W/m 5,4 km/h (1 Bft)
31.07.2016 00:00 19,0 C 87 % 1009,7 hPa 0,0 l/m N 0,00 h 0 W/m 0,0 km/h (0 Bft)
31.07.2016 01:00 18,1 C 91 % 1009,4 hPa 0,0 l/m N 0,00 h 0 W/m 0,0 km/h (0 Bft)
31.07.2016 02:00 17,5 C 93 % 1009,3 hPa 0,0 l/m N 0,00 h 0 W/m 0,0 km/h (0 Bft)
31.07.2016 03:00 17,3 C 94 % 1009,5 hPa 0,0 l/m N 0,00 h 0 W/m 0,0 km/h (0 Bft)
31.07.2016 04:00 17,9 C 88 % 1009,5 hPa 0,0 l/m SW 0,00 h 0 W/m 8,7 km/h (2 Bft)
31.07.2016 05:00 17,7 C 88 % 1009,0 hPa 0,0 l/m SW 0,00 h 0 W/m 9,3 km/h (2 Bft)
31.07.2016 06:00 18,9 C 80 % 1009,0 hPa 0,0 l/m SW 0,00 h 18 W/m 12,0 km/h (2 Bft)
31.07.2016 07:00 19,2 C 80 % 1009,4 hPa 0,0 l/m W-SW 0,00 h 33 W/m 15,2 km/h (3 Bft)
31.07.2016 08:00 18,6 C 88 % 1009,9 hPa 0,2 l/m W-SW 0,00 h 74 W/m 10,5 km/h (2 Bft)
31.07.2016 09:00 19,0 C 90 % 1010,3 hPa 0,0 l/m SW 0,00 h 114 W/m 14,6 km/h (3 Bft)
31.07.2016 10:00 20,0 C 85 % 1010,0 hPa 0,0 l/m SW 0,00 h 142 W/m 15,7 km/h (3 Bft)
31.07.2016 11:00 20,4 C 81 % 1009,9 hPa 0,0 l/m SW 0,00 h 97 W/m 22,3 km/h (4 Bft)
31.07.2016 12:00 17,7 C 91 % 1010,5 hPa 6,2 l/m W-SW 0,00 h 35 W/m 18,4 km/h (3 Bft)
31.07.2016 13:00 17,3 C 97 % 1010,8 hPa 2,2 l/m SW 0,00 h 73 W/m 6,7 km/h (2 Bft)
31.07.2016 14:00 18,4 C 97 % 1010,5 hPa 0,0 l/m SW 0,08 h 247 W/m 9,3 km/h (2 Bft)
31.07.2016 15:00 18,9 C 95 % 1010,6 hPa 0,8 l/m W-SW 0,08 h 201 W/m 4,9 km/h (1 Bft)
31.07.2016 16:00 19,4 C 92 % 1010,5 hPa 0,0 l/m N 0,00 h 151 W/m 9,7 km/h (2 Bft)
31.07.2016 17:00 18,3 C 93 % 1011,1 hPa 1,0 l/m N-NO 0,00 h 44 W/m 8,6 km/h (2 Bft)
31.07.2016 18:00 18,3 C 96 % 1011,9 hPa 0,2 l/m N 0,00 h 79 W/m 0,4 km/h (0 Bft)
31.07.2016 19:00 18,8 C 94 % 1012,4 hPa 0,0 l/m N 0,50 h 129 W/m 3,5 km/h (1 Bft)
31.07.2016 20:00 17,8 C 93 % 1013,3 hPa 0,0 l/m N 0,17 h 29 W/m 2,9 km/h (1 Bft)
31.07.2016 21:00 16,5 C 92 % 1013,8 hPa 0,0 l/m NW 0,00 h 0 W/m 7,5 km/h (2 Bft)
31.07.2016 22:00 16,1 C 92 % 1014,5 hPa 0,0 l/m W-NW 0,00 h 0 W/m 8,0 km/h (2 Bft)
31.07.2016 23:00 15,6 C 91 % 1015,1 hPa 0,0 l/m W-NW 0,00 h 0 W/m 8,9 km/h (2 Bft)
Min-Datum _ 28.07.16 30.07.16 31.07.16 - - - - 25.07.16
_ Min-Zeit 06:30 14:55 05:55 - - - - 00:00
Minimum _ 14,0 C 47 % 1008,7 hPa - - - - 0,0 km/h (0 Bft)
Max-Datum _ 30.07.16 26.07.16 25.07.16 26.07.16 - 25.07.16 28.07.16 26.07.16
_ Max-Zeit 16:10 07:00 22:50 19:55 - 08:50 13:40 19:50
Maximum _ 29,0 C 100 % 1017,6 hPa 14,8 l/m - 0,08 h 1146 W/m 46,7 km/h
N-NO (6 Bft)
Durchschnitt _ 19,5 C 86 % 1014,0 hPa #53,0 l/m W-SW #36:35 h 283 W/m 6,4 km/h (2 Bft)